createdAt,value
2022-08-25T00:02:09.830Z,97766.88
2022-08-25T00:04:37.181Z,97772.75
2022-08-25T00:07:07.283Z,97769.44
2022-08-25T00:09:34.998Z,97760.00
2022-08-25T00:12:05.160Z,97758.34
2022-08-25T00:14:36.770Z,97753.09
2022-08-25T00:17:04.996Z,97759.53
2022-08-25T00:19:35.133Z,97752.44
2022-08-25T00:22:03.547Z,97747.13
2022-08-25T00:24:30.700Z,97746.94
2022-08-25T00:26:58.787Z,97746.56
2022-08-25T00:29:31.921Z,97745.28
2022-08-25T00:31:58.460Z,97746.47
2022-08-25T00:34:34.104Z,97732.34
2022-08-25T00:37:02.098Z,97743.56
2022-08-25T00:39:28.972Z,97742.75
2022-08-25T00:41:57.577Z,97732.75
2022-08-25T00:44:28.079Z,97734.19
2022-08-25T00:46:57.841Z,97730.50
2022-08-25T00:49:29.157Z,97732.19
2022-08-25T00:52:04.751Z,97726.66
2022-08-25T00:54:45.555Z,97728.41
2022-08-25T00:57:14.797Z,97726.13
2022-08-25T00:59:44.661Z,97722.81
2022-08-25T01:02:15.445Z,97722.19
2022-08-25T01:04:48.962Z,97714.75
2022-08-25T01:07:19.446Z,97720.25
2022-08-25T01:09:48.308Z,97717.16
2022-08-25T01:12:15.659Z,97723.38
2022-08-25T01:14:46.636Z,97715.56
2022-08-25T01:17:14.103Z,97710.16
2022-08-25T01:19:40.898Z,97710.56
2022-08-25T01:22:08.747Z,97710.13
2022-08-25T01:24:37.567Z,97710.47
2022-08-25T01:27:08.403Z,97710.19
2022-08-25T01:29:36.078Z,97706.91
2022-08-25T01:32:06.346Z,97702.94
2022-08-25T01:34:35.966Z,97707.91
2022-08-25T01:37:04.928Z,97706.81
2022-08-25T01:39:38.984Z,97698.13
2022-08-25T01:42:19.048Z,97697.81
2022-08-25T01:44:47.794Z,97690.38
2022-08-25T01:47:14.742Z,97691.03
2022-08-25T01:49:41.754Z,97684.25
2022-08-25T01:52:25.079Z,97682.75
2022-08-25T01:54:52.186Z,97674.66
2022-08-25T01:57:18.926Z,97672.94
2022-08-25T01:59:45.812Z,97674.66
2022-08-25T02:02:12.531Z,97673.97
2022-08-25T02:04:39.615Z,97689.28
2022-08-25T02:07:11.104Z,97686.50
2022-08-25T02:09:38.630Z,97692.66
2022-08-25T02:12:06.004Z,97699.91
2022-08-25T02:14:32.776Z,97700.56
2022-08-25T02:16:59.471Z,97692.22
2022-08-25T02:19:26.515Z,97693.34
2022-08-25T02:21:53.744Z,97688.06
2022-08-25T02:24:20.664Z,97689.00
2022-08-25T02:26:47.371Z,97689.00
2022-08-25T02:29:14.667Z,97689.00
2022-08-25T02:31:41.434Z,97684.03
2022-08-25T02:34:09.524Z,97677.88
2022-08-25T02:36:37.850Z,97677.72
2022-08-25T02:39:06.731Z,97681.38
2022-08-25T02:41:33.683Z,97690.19
2022-08-25T02:44:02.585Z,97676.44
2022-08-25T02:46:29.813Z,97674.59
2022-08-25T02:48:57.600Z,97676.91
2022-08-25T02:51:25.930Z,97675.72
2022-08-25T02:53:52.677Z,97674.34
2022-08-25T02:56:20.627Z,97667.81
2022-08-25T02:58:48.247Z,97665.91
2022-08-25T03:01:16.000Z,97663.81
2022-08-25T03:03:44.834Z,97669.59
2022-08-25T03:06:14.471Z,97665.91
2022-08-25T03:08:42.190Z,97663.25
2022-08-25T03:11:09.435Z,97661.88
2022-08-25T03:13:36.828Z,97652.91
2022-08-25T03:16:05.569Z,97660.69
2022-08-25T03:18:39.538Z,97657.84
2022-08-25T03:21:07.078Z,97652.34
2022-08-25T03:23:33.906Z,97653.19
2022-08-25T03:26:19.129Z,97651.72
2022-08-25T03:28:45.948Z,97651.88
2022-08-25T03:31:12.733Z,97649.50
2022-08-25T03:33:40.114Z,97646.84
2022-08-25T03:36:08.645Z,97659.13
2022-08-25T03:38:38.205Z,97656.47
2022-08-25T03:41:32.782Z,97654.25
2022-08-25T03:44:01.519Z,97662.63
2022-08-25T03:46:34.977Z,97654.47
2022-08-25T03:49:04.336Z,97653.63
2022-08-25T03:51:46.957Z,97663.25
2022-08-25T03:54:16.353Z,97654.72
2022-08-25T03:56:43.562Z,97654.34
2022-08-25T03:59:10.275Z,97658.03
2022-08-25T04:01:42.093Z,97655.28
2022-08-25T04:04:11.239Z,97652.16
2022-08-25T04:06:40.124Z,97650.88
2022-08-25T04:09:07.311Z,97651.88
2022-08-25T04:11:34.050Z,97654.72
2022-08-25T04:14:02.305Z,97650.50
2022-08-25T04:16:31.610Z,97654.16
2022-08-25T04:19:00.586Z,97645.47
2022-08-25T04:21:28.175Z,97640.78
2022-08-25T04:23:56.202Z,97642.41
2022-08-25T04:26:27.101Z,97646.75
2022-08-25T04:28:56.162Z,97643.69
2022-08-25T04:31:23.453Z,97645.38
2022-08-25T04:33:50.814Z,97652.31
2022-08-25T04:36:21.436Z,97654.44
2022-08-25T04:38:49.708Z,97660.25
2022-08-25T04:41:20.337Z,97653.75
2022-08-25T04:43:47.126Z,97656.63
2022-08-25T04:46:25.579Z,97661.56
2022-08-25T04:48:54.863Z,97661.25
2022-08-25T04:51:29.459Z,97666.81
2022-08-25T04:54:01.173Z,97665.81
2022-08-25T04:56:30.309Z,97663.41
2022-08-25T04:58:57.211Z,97667.63
2022-08-25T05:01:25.662Z,97672.56
2022-08-25T05:03:55.570Z,97680.81
2022-08-25T05:06:23.002Z,97682.06
2022-08-25T05:08:50.097Z,97688.03
2022-08-25T05:11:18.255Z,97676.81
2022-08-25T05:13:51.553Z,97684.63
2022-08-25T05:16:19.940Z,97677.56
2022-08-25T05:18:46.763Z,97678.44
2022-08-25T05:21:16.506Z,97689.56
2022-08-25T05:23:43.429Z,97679.19
2022-08-25T05:26:19.709Z,97682.09
2022-08-25T05:28:49.398Z,97685.06
2022-08-25T05:31:17.018Z,97689.25
2022-08-25T05:33:44.361Z,97686.22
2022-08-25T05:36:13.254Z,97681.19
2022-08-25T05:38:41.898Z,97680.59
2022-08-25T05:41:17.027Z,97675.13
2022-08-25T05:43:47.148Z,97681.78
2022-08-25T05:46:14.452Z,97687.16
2022-08-25T05:48:41.466Z,97679.38
2022-08-25T05:51:10.347Z,97689.09
2022-08-25T05:53:39.893Z,97684.00
2022-08-25T05:56:06.770Z,97686.63
2022-08-25T05:58:34.016Z,97686.91
2022-08-25T06:01:21.370Z,97684.69
2022-08-25T06:03:48.818Z,97691.47
2022-08-25T06:06:16.474Z,97690.44
2022-08-25T06:08:44.599Z,97689.22
2022-08-25T06:11:13.236Z,97688.00
2022-08-25T06:13:40.707Z,97688.03
2022-08-25T06:16:07.720Z,97683.03
2022-08-25T06:18:34.450Z,97687.56
2022-08-25T06:21:14.796Z,97689.84
2022-08-25T06:23:41.551Z,97686.53
2022-08-25T06:26:20.604Z,97697.63
2022-08-25T06:28:50.588Z,97696.69
2022-08-25T06:31:18.897Z,97702.81
2022-08-25T06:33:45.840Z,97705.59
2022-08-25T06:36:12.828Z,97696.63
2022-08-25T06:38:39.566Z,97697.09
2022-08-25T06:41:07.968Z,97699.09
2022-08-25T06:43:35.245Z,97693.72
2022-08-25T06:46:17.956Z,97692.19
2022-08-25T06:48:44.741Z,97702.63
2022-08-25T06:51:13.855Z,97699.69
2022-08-25T06:53:42.853Z,97703.59
2022-08-25T06:56:10.239Z,97697.59
2022-08-25T06:58:37.711Z,97704.09
2022-08-25T07:01:15.768Z,97700.44
2022-08-25T07:03:47.513Z,97705.41
2022-08-25T07:06:15.179Z,97699.53
2022-08-25T07:08:46.787Z,97699.91
2022-08-25T07:11:18.086Z,97701.97
2022-08-25T07:13:45.980Z,97702.22
2022-08-25T07:16:15.349Z,97709.16
2022-08-25T07:18:42.636Z,97715.66
2022-08-25T07:21:12.306Z,97716.22
2022-08-25T07:23:40.513Z,97718.28
2022-08-25T07:26:15.809Z,97711.44
2022-08-25T07:28:48.767Z,97722.44
2022-08-25T07:31:17.558Z,97718.22
2022-08-25T07:34:03.202Z,97710.13
2022-08-25T07:36:31.646Z,97715.53
2022-08-25T07:38:59.714Z,97707.16
2022-08-25T07:41:26.915Z,97715.63
2022-08-25T07:43:54.136Z,97711.72
2022-08-25T07:46:20.826Z,97711.97
2022-08-25T07:48:53.411Z,97720.91
2022-08-25T07:51:20.335Z,97720.53
2022-08-25T07:53:47.089Z,97722.31
2022-08-25T07:56:16.771Z,97718.78
2022-08-25T07:58:43.977Z,97716.47
2022-08-25T08:01:18.468Z,97717.00
2022-08-25T08:03:50.404Z,97716.25
2022-08-25T08:06:21.097Z,97719.91
2022-08-25T08:08:49.683Z,97727.38
2022-08-25T08:11:27.963Z,97732.00
2022-08-25T08:13:57.078Z,97730.34
2022-08-25T08:16:26.860Z,97733.28
2022-08-25T08:18:53.977Z,97735.56
2022-08-25T08:21:24.767Z,97743.13
2022-08-25T08:23:58.131Z,97735.13
2022-08-25T08:26:36.338Z,97747.78
2022-08-25T08:29:13.682Z,97741.66
2022-08-25T08:31:40.740Z,97739.09
2022-08-25T08:34:16.568Z,97739.75
2022-08-25T08:36:43.362Z,97745.47
2022-08-25T08:39:12.120Z,97741.78
2022-08-25T08:42:11.312Z,97737.91
2022-08-25T08:44:45.770Z,97742.16
2022-08-25T08:47:30.443Z,97736.94
2022-08-25T08:50:00.799Z,97740.06
2022-08-25T08:52:44.569Z,97734.97
2022-08-25T08:55:35.692Z,97738.84
2022-08-25T08:58:10.516Z,97737.31
2022-08-25T09:00:48.928Z,97730.69
2022-08-25T09:03:44.602Z,97731.66
2022-08-25T09:06:17.722Z,97727.88
2022-08-25T09:08:45.161Z,97730.22
2022-08-25T09:11:33.070Z,97734.69
2022-08-25T09:14:08.398Z,97733.47
2022-08-25T09:16:59.100Z,97735.28
2022-08-25T09:20:02.886Z,97731.13
2022-08-25T09:22:51.672Z,97740.13
2022-08-25T09:28:30.312Z,97738.41
2022-08-25T09:31:04.752Z,97728.63
2022-08-25T09:33:35.403Z,97724.09
2022-08-25T09:36:04.627Z,97727.97
2022-08-25T09:38:33.674Z,97733.56
2022-08-25T09:41:02.591Z,97725.34
2022-08-25T09:43:35.263Z,97727.69
2022-08-25T09:46:23.294Z,97717.84
2022-08-25T09:48:56.777Z,97712.66
2022-08-25T09:51:25.789Z,97714.22
2022-08-25T09:53:57.826Z,97712.16
2022-08-25T09:56:28.618Z,97712.53
2022-08-25T09:59:02.402Z,97711.22
2022-08-25T10:01:34.568Z,97703.56
2022-08-25T10:04:04.764Z,97712.34
2022-08-25T10:06:42.755Z,97698.22
2022-08-25T10:09:22.187Z,97699.00
2022-08-25T10:11:49.330Z,97692.03
2022-08-25T10:14:18.309Z,97689.91
2022-08-25T10:16:47.288Z,97691.28
2022-08-25T10:19:29.423Z,97685.75
2022-08-25T10:22:08.006Z,97692.97
2022-08-25T10:24:39.152Z,97687.72
2022-08-25T10:27:29.121Z,97688.03
2022-08-25T10:30:08.175Z,97678.06
2022-08-25T10:32:44.571Z,97685.66
2022-08-25T10:35:29.151Z,97685.53
2022-08-25T10:38:08.300Z,97678.34
2022-08-25T10:40:51.789Z,97673.84
2022-08-25T10:43:48.803Z,97675.53
2022-08-25T10:46:41.787Z,97669.47
2022-08-25T10:49:35.762Z,97669.69
2022-08-25T10:52:05.724Z,97659.13
2022-08-25T10:54:40.790Z,97653.34
2022-08-25T10:57:32.055Z,97650.09
2022-08-25T11:00:12.642Z,97644.09
2022-08-25T11:03:01.763Z,97639.56
2022-08-25T11:05:40.619Z,97656.47
2022-08-25T11:08:14.435Z,97638.03
2022-08-25T11:10:53.030Z,97643.63
2022-08-25T11:13:31.412Z,97628.03
2022-08-25T11:16:17.392Z,97636.53
2022-08-25T11:19:15.803Z,97628.56
2022-08-25T11:21:52.399Z,97617.81
2022-08-25T11:24:39.178Z,97606.84
2022-08-25T11:27:13.743Z,97607.63
2022-08-25T11:29:42.699Z,97614.69
2022-08-25T11:32:09.575Z,97605.28
2022-08-25T11:34:43.551Z,97593.88
2022-08-25T11:37:25.506Z,97588.84
2022-08-25T11:40:13.619Z,97587.44
2022-08-25T11:42:48.485Z,97596.75
2022-08-25T11:45:33.825Z,97587.38
2022-08-25T11:48:11.547Z,97579.34
2022-08-25T11:50:59.971Z,97578.84
2022-08-25T11:53:32.244Z,97584.16
2022-08-25T11:56:06.648Z,97578.69
2022-08-25T11:58:54.633Z,97571.25
2022-08-25T12:01:40.107Z,97572.25
2022-08-25T12:04:16.003Z,97576.44
2022-08-25T12:07:10.572Z,97570.16
2022-08-25T12:09:55.484Z,97568.53
2022-08-25T12:12:37.195Z,97557.22
2022-08-25T12:15:18.878Z,97558.53
2022-08-25T12:18:08.533Z,97560.44
2022-08-25T12:20:56.936Z,97558.81
2022-08-25T12:24:01.888Z,97560.75
2022-08-25T12:26:40.737Z,97567.47
2022-08-25T12:29:41.569Z,97566.31
2022-08-25T12:32:37.845Z,97563.84
2022-08-25T12:35:31.863Z,97561.25
2022-08-25T12:38:06.623Z,97564.13
2022-08-25T12:40:45.393Z,97560.50
2022-08-25T12:43:12.149Z,97560.00
2022-08-25T12:45:44.733Z,97558.72
2022-08-25T12:48:27.297Z,97552.78
2022-08-25T12:51:15.223Z,97552.94
2022-08-25T12:53:46.497Z,97549.47
2022-08-25T12:56:26.586Z,97543.66
2022-08-25T12:59:03.571Z,97531.59
2022-08-25T13:02:07.065Z,97542.38
2022-08-25T13:04:52.963Z,97539.66
2022-08-25T13:07:44.399Z,97534.44
2022-08-25T13:10:29.597Z,97523.97
2022-08-25T13:13:09.616Z,97531.50
2022-08-25T13:15:48.674Z,97510.34
2022-08-25T13:18:33.085Z,97512.00
2022-08-25T13:21:30.749Z,97508.72
2022-08-25T13:24:01.446Z,97518.03
2022-08-25T13:26:37.565Z,97512.66
2022-08-25T13:29:24.347Z,97512.19
2022-08-25T13:31:55.096Z,97497.38
2022-08-25T13:34:34.990Z,97501.97
2022-08-25T13:37:30.464Z,97503.47
2022-08-25T13:40:17.825Z,97494.03
2022-08-25T13:42:55.902Z,97488.94
2022-08-25T13:45:26.042Z,97491.84
2022-08-25T13:47:56.334Z,97483.81
2022-08-25T13:50:27.223Z,97486.28
2022-08-25T13:53:26.661Z,97487.69
2022-08-25T13:56:02.316Z,97485.50
2022-08-25T13:58:38.709Z,97480.03
2022-08-25T14:01:23.128Z,97483.63
2022-08-25T14:04:34.881Z,97477.72
2022-08-25T14:07:14.041Z,97475.63
2022-08-25T14:09:52.414Z,97472.25
2022-08-25T14:12:33.201Z,97467.16
2022-08-25T14:15:01.684Z,97459.50
2022-08-25T14:17:39.315Z,97471.09
2022-08-25T14:20:17.211Z,97468.94
2022-08-25T14:22:44.072Z,97465.16
2022-08-25T14:25:11.327Z,97462.25
2022-08-25T14:28:03.575Z,97458.13
2022-08-25T14:30:30.123Z,97451.94
2022-08-25T14:32:57.243Z,97449.47
2022-08-25T14:35:24.126Z,97454.53
2022-08-25T14:37:51.049Z,97449.19
2022-08-25T14:40:20.015Z,97449.81
2022-08-25T14:42:47.810Z,97447.97
2022-08-25T14:45:16.467Z,97448.22
2022-08-25T14:47:46.351Z,97442.78
2022-08-25T14:50:20.165Z,97444.94
2022-08-25T14:52:48.343Z,97441.44
2022-08-25T14:55:31.846Z,97436.56
2022-08-25T14:57:59.778Z,97441.72
2022-08-25T15:00:26.694Z,97428.03
2022-08-25T15:02:55.048Z,97440.53
2022-08-25T15:05:28.428Z,97432.91
2022-08-25T15:08:14.296Z,97436.41
2022-08-25T15:10:41.874Z,97427.19
2022-08-25T15:13:10.528Z,97428.03
2022-08-25T15:15:52.613Z,97428.41
2022-08-25T15:18:21.847Z,97432.44
2022-08-25T15:20:49.928Z,97438.84
2022-08-25T15:23:18.567Z,97435.63
2022-08-25T15:25:52.857Z,97442.66
2022-08-25T15:28:22.236Z,97433.44
2022-08-25T15:30:50.416Z,97433.19
2022-08-25T15:33:17.659Z,97441.25
2022-08-25T15:35:47.571Z,97430.69
2022-08-25T15:38:16.877Z,97440.09
2022-08-25T15:40:43.579Z,97436.28
2022-08-25T15:43:10.363Z,97432.50
2022-08-25T15:45:37.656Z,97430.00
2022-08-25T15:48:06.901Z,97433.00
2022-08-25T15:50:39.355Z,97422.09
2022-08-25T15:53:06.322Z,97420.97
2022-08-25T15:55:39.439Z,97425.31
2022-08-25T15:58:06.768Z,97424.81
2022-08-25T16:00:35.708Z,97430.19
2022-08-25T16:03:04.813Z,97428.03
2022-08-25T16:05:37.311Z,97431.41
2022-08-25T16:08:04.811Z,97426.25
2022-08-25T16:10:36.552Z,97427.16
2022-08-25T16:13:04.758Z,97422.53
2022-08-25T16:15:32.503Z,97424.16
2022-08-25T16:18:00.574Z,97422.03
2022-08-25T16:20:31.452Z,97428.56
2022-08-25T16:23:02.473Z,97413.03
2022-08-25T16:25:31.438Z,97414.69
2022-08-25T16:27:58.127Z,97417.63
2022-08-25T16:30:25.229Z,97407.03
2022-08-25T16:32:54.351Z,97410.31
2022-08-25T16:35:21.228Z,97418.88
2022-08-25T16:37:49.561Z,97418.38
2022-08-25T16:40:18.875Z,97419.69
2022-08-25T16:42:46.739Z,97416.63
2022-08-25T16:45:13.784Z,97421.84
2022-08-25T16:47:42.746Z,97416.03
2022-08-25T16:50:10.813Z,97418.19
2022-08-25T16:52:56.499Z,97417.91
2022-08-25T16:55:25.195Z,97427.91
2022-08-25T16:57:54.218Z,97431.72
2022-08-25T17:00:28.137Z,97423.06
2022-08-25T17:02:59.377Z,97427.22
2022-08-25T17:05:29.595Z,97425.94
2022-08-25T17:08:17.506Z,97424.53
2022-08-25T17:10:44.739Z,97428.06
2022-08-25T17:13:12.816Z,97425.13
2022-08-25T17:15:42.441Z,97424.25
2022-08-25T17:18:11.191Z,97426.38
2022-08-25T17:20:40.396Z,97427.50
2022-08-25T17:23:12.703Z,97430.94
2022-08-25T17:25:42.973Z,97427.00
2022-08-25T17:28:11.922Z,97430.69
2022-08-25T17:30:39.311Z,97429.06
2022-08-25T17:33:06.087Z,97429.81
2022-08-25T17:35:38.858Z,97428.44
2022-08-25T17:38:06.274Z,97432.44
2022-08-25T17:40:33.987Z,97436.53
2022-08-25T17:43:01.790Z,97437.13
2022-08-25T17:45:28.450Z,97445.16
2022-08-25T17:47:55.662Z,97452.31
2022-08-25T17:50:24.581Z,97435.34
2022-08-25T17:52:52.420Z,97461.75
2022-08-25T17:55:24.175Z,97460.06
2022-08-25T17:57:51.275Z,97460.03
2022-08-25T18:00:20.014Z,97454.19
2022-08-25T18:02:50.134Z,97456.53
2022-08-25T18:05:17.495Z,97470.81
2022-08-25T18:07:44.189Z,97463.69
2022-08-25T18:10:11.518Z,97474.16
2022-08-25T18:12:39.210Z,97473.75
2022-08-25T18:15:08.211Z,97477.19
2022-08-25T18:17:35.826Z,97479.13
2022-08-25T18:20:06.226Z,97480.25
2022-08-25T18:22:33.166Z,97481.00
2022-08-25T18:25:00.305Z,97482.09
2022-08-25T18:27:28.405Z,97481.19
2022-08-25T18:29:56.025Z,97480.44
2022-08-25T18:32:26.112Z,97488.53
2022-08-25T18:34:53.393Z,97493.97
2022-08-25T18:37:39.167Z,97497.75
2022-08-25T18:40:25.446Z,97492.66
2022-08-25T18:42:57.945Z,97494.38
2022-08-25T18:45:28.439Z,97499.78
2022-08-25T18:47:58.132Z,97499.16
2022-08-25T18:50:30.354Z,97501.47
2022-08-25T18:52:57.477Z,97501.13
2022-08-25T18:55:24.634Z,97512.66
2022-08-25T18:57:51.677Z,97506.75
2022-08-25T19:00:21.251Z,97510.06
2022-08-25T19:02:52.790Z,97511.53
2022-08-25T19:05:24.228Z,97514.47
2022-08-25T19:07:54.228Z,97509.16
2022-08-25T19:10:24.071Z,97505.88
2022-08-25T19:12:52.178Z,97511.66
2022-08-25T19:15:18.901Z,97514.19
2022-08-25T19:17:53.161Z,97515.03
2022-08-25T19:20:21.882Z,97512.16
2022-08-25T19:22:49.449Z,97519.59
2022-08-25T19:25:18.598Z,97514.88
2022-08-25T19:27:46.310Z,97515.09
2022-08-25T19:30:14.749Z,97515.31
2022-08-25T19:32:43.830Z,97517.63
2022-08-25T19:35:34.524Z,97521.94
2022-08-25T19:38:07.160Z,97520.75
2022-08-25T19:40:52.156Z,97519.31
2022-08-25T19:43:19.060Z,97522.59
2022-08-25T19:45:46.401Z,97521.97
2022-08-25T19:48:14.099Z,97523.22
2022-08-25T19:50:42.228Z,97526.31
2022-08-25T19:53:09.038Z,97518.28
2022-08-25T19:55:35.955Z,97523.66
2022-08-25T19:58:03.555Z,97525.09
2022-08-25T20:00:34.136Z,97527.56
2022-08-25T20:03:04.149Z,97534.16
2022-08-25T20:05:31.581Z,97530.50
2022-08-25T20:07:59.578Z,97536.25
2022-08-25T20:10:29.719Z,97528.00
2022-08-25T20:12:56.678Z,97526.41
2022-08-25T20:15:24.812Z,97527.84
2022-08-25T20:17:51.776Z,97532.19
2022-08-25T20:20:25.778Z,97530.94
2022-08-25T20:23:19.766Z,97530.13
2022-08-25T20:25:46.719Z,97535.66
2022-08-25T20:28:18.649Z,97532.19
2022-08-25T20:30:46.121Z,97540.81
2022-08-25T20:33:13.345Z,97531.56
2022-08-25T20:35:48.339Z,97535.28
2022-08-25T20:38:15.031Z,97531.38
2022-08-25T20:40:42.086Z,97531.78
2022-08-25T20:43:12.090Z,97542.06
2022-08-25T20:45:39.582Z,97532.59
2022-08-25T20:48:06.390Z,97535.91
2022-08-25T20:50:33.742Z,97535.69
2022-08-25T20:53:00.931Z,97541.22
2022-08-25T20:55:28.886Z,97544.91
2022-08-25T20:57:55.534Z,97552.06
2022-08-25T21:00:25.302Z,97551.91
2022-08-25T21:02:53.423Z,97541.66
2022-08-25T21:05:20.217Z,97544.53
2022-08-25T21:07:46.993Z,97548.59
2022-08-25T21:10:15.961Z,97546.97
2022-08-25T21:12:45.240Z,97548.38
2022-08-25T21:15:13.178Z,97546.34
2022-08-25T21:17:49.690Z,97546.16
2022-08-25T21:20:17.179Z,97541.59
2022-08-25T21:22:43.828Z,97536.06
2022-08-25T21:25:10.980Z,97539.97
2022-08-25T21:27:37.764Z,97540.16
2022-08-25T21:30:06.843Z,97536.25
2022-08-25T21:32:34.589Z,97536.06
2022-08-25T21:35:01.559Z,97529.47
2022-08-25T21:37:28.356Z,97534.19
2022-08-25T21:39:55.237Z,97527.22
2022-08-25T21:42:23.843Z,97521.06
2022-08-25T21:44:52.212Z,97523.53
2022-08-25T21:47:21.231Z,97525.16
2022-08-25T21:49:48.787Z,97522.28
2022-08-25T21:52:15.859Z,97510.78
2022-08-25T21:54:43.949Z,97524.75
2022-08-25T21:57:10.676Z,97521.44
2022-08-25T21:59:43.507Z,97514.25
2022-08-25T22:02:13.110Z,97521.63
2022-08-25T22:04:40.701Z,97518.13
2022-08-25T22:07:08.815Z,97522.81
2022-08-25T22:09:36.112Z,97522.41
2022-08-25T22:12:04.678Z,97520.75
2022-08-25T22:14:32.390Z,97518.09
2022-08-25T22:16:59.995Z,97523.41
2022-08-25T22:19:27.284Z,97518.69
2022-08-25T22:21:55.580Z,97511.44
2022-08-25T22:24:22.449Z,97513.47
2022-08-25T22:26:51.460Z,97509.38
2022-08-25T22:29:23.241Z,97507.53
2022-08-25T22:31:59.826Z,97511.59
2022-08-25T22:34:32.462Z,97509.34
2022-08-25T22:37:01.319Z,97510.13
2022-08-25T22:39:31.886Z,97507.25
2022-08-25T22:41:58.890Z,97509.91
2022-08-25T22:44:26.345Z,97502.72
2022-08-25T22:46:54.275Z,97501.47
2022-08-25T22:49:21.800Z,97501.03
2022-08-25T22:51:48.880Z,97491.19
2022-08-25T22:54:15.876Z,97493.25
2022-08-25T22:56:42.964Z,97491.22
2022-08-25T22:59:12.516Z,97493.63
2022-08-25T23:01:39.830Z,97481.34
2022-08-25T23:04:07.414Z,97485.63
2022-08-25T23:06:37.200Z,97485.38
2022-08-25T23:09:06.708Z,97481.25
2022-08-25T23:11:33.719Z,97490.28
2022-08-25T23:14:00.619Z,97492.31
2022-08-25T23:16:28.481Z,97489.47
2022-08-25T23:18:55.273Z,97478.38
2022-08-25T23:21:41.275Z,97476.53
2022-08-25T23:24:11.347Z,97477.34
2022-08-25T23:26:42.518Z,97471.38
2022-08-25T23:29:18.488Z,97464.59
2022-08-25T23:31:47.738Z,97461.94
2022-08-25T23:34:15.479Z,97463.16
2022-08-25T23:36:42.928Z,97465.19
2022-08-25T23:39:11.525Z,97462.25
2022-08-25T23:41:38.440Z,97462.66
2022-08-25T23:44:17.433Z,97455.50
2022-08-25T23:46:47.098Z,97447.50
2022-08-25T23:49:18.397Z,97444.22
2022-08-25T23:51:50.324Z,97437.66
2022-08-25T23:54:20.455Z,97438.88
2022-08-25T23:56:52.382Z,97442.56
2022-08-25T23:59:24.192Z,97437.00
